createdAt,value
2023-03-18T00:02:15.636Z,4.20
2023-03-18T00:04:42.986Z,4.10
2023-03-18T00:07:10.719Z,4.97
2023-03-18T00:09:38.337Z,4.60
2023-03-18T00:12:06.570Z,4.60
2023-03-18T00:14:35.939Z,4.63
2023-03-18T00:17:03.184Z,4.60
2023-03-18T00:19:30.552Z,4.43
2023-03-18T00:21:58.008Z,4.57
2023-03-18T00:24:25.260Z,4.43
2023-03-18T00:26:52.570Z,4.50
2023-03-18T00:29:19.870Z,4.50
2023-03-18T00:31:47.516Z,4.10
2023-03-18T00:34:14.837Z,4.03
2023-03-18T00:36:42.826Z,3.80
2023-03-18T00:39:11.021Z,3.83
2023-03-18T00:41:38.274Z,4.30
2023-03-18T00:44:06.132Z,4.07
2023-03-18T00:46:38.285Z,3.93
2023-03-18T00:49:08.852Z,3.80
2023-03-18T00:51:37.629Z,4.60
2023-03-18T00:54:09.729Z,4.17
2023-03-18T00:56:38.794Z,3.87
2023-03-18T00:59:07.199Z,4.50
2023-03-18T01:01:34.561Z,4.23
2023-03-18T01:04:02.646Z,5.00
2023-03-18T01:06:31.347Z,4.43
2023-03-18T01:08:59.398Z,4.40
2023-03-18T01:11:26.728Z,4.33
2023-03-18T01:13:54.514Z,3.93
2023-03-18T01:16:22.524Z,4.50
2023-03-18T01:18:50.096Z,4.33
2023-03-18T01:21:18.113Z,4.53
2023-03-18T01:23:55.851Z,4.57
2023-03-18T01:26:23.783Z,3.97
2023-03-18T01:28:52.502Z,4.53
2023-03-18T01:31:20.514Z,4.30
2023-03-18T01:33:48.818Z,4.30
2023-03-18T01:36:17.488Z,4.37
2023-03-18T01:38:49.917Z,4.43
2023-03-18T01:41:17.418Z,4.47
2023-03-18T01:43:45.041Z,4.27
2023-03-18T01:46:31.973Z,4.10
2023-03-18T01:49:02.499Z,4.13
2023-03-18T01:51:31.110Z,4.40
2023-03-18T01:54:00.152Z,4.40
2023-03-18T01:56:27.881Z,3.73
2023-03-18T01:58:57.477Z,4.23
2023-03-18T02:01:26.298Z,3.97
2023-03-18T02:06:42.460Z,4.30
2023-03-18T02:09:10.332Z,4.03
2023-03-18T02:11:39.924Z,4.33
2023-03-18T02:14:08.378Z,4.07
2023-03-18T02:16:40.063Z,4.23
2023-03-18T02:19:26.614Z,4.27
2023-03-18T02:22:00.741Z,4.23
2023-03-18T02:24:34.312Z,4.53
2023-03-18T02:27:13.504Z,4.37
2023-03-18T02:29:43.209Z,4.13
2023-03-18T02:32:16.157Z,4.10
2023-03-18T02:34:45.075Z,4.23
2023-03-18T02:37:12.640Z,3.93
2023-03-18T02:39:42.238Z,4.00
2023-03-18T02:42:14.459Z,4.53
2023-03-18T02:44:48.598Z,4.33
2023-03-18T02:47:36.730Z,4.70
2023-03-18T02:50:05.259Z,4.37
2023-03-18T02:52:33.588Z,4.93
2023-03-18T02:55:01.797Z,4.13
2023-03-18T02:57:30.624Z,4.27
2023-03-18T02:59:58.398Z,4.27
2023-03-18T03:02:26.293Z,4.30
2023-03-18T03:04:53.791Z,4.53
2023-03-18T03:07:21.570Z,4.60
2023-03-18T03:09:53.183Z,4.10
2023-03-18T03:12:22.969Z,4.37
2023-03-18T03:14:54.616Z,4.27
2023-03-18T03:17:22.075Z,4.00
2023-03-18T03:19:51.012Z,4.13
2023-03-18T03:22:18.514Z,4.60
2023-03-18T03:24:47.015Z,3.77
2023-03-18T03:27:15.030Z,4.20
2023-03-18T03:29:42.316Z,4.37
2023-03-18T03:32:09.988Z,4.30
2023-03-18T03:34:37.469Z,4.20
2023-03-18T03:37:04.787Z,4.47
2023-03-18T03:39:32.659Z,4.30
2023-03-18T03:42:00.050Z,4.07
2023-03-18T03:44:27.274Z,4.50
2023-03-18T03:46:54.553Z,4.30
2023-03-18T03:49:23.557Z,4.40
2023-03-18T03:51:51.085Z,4.40
2023-03-18T03:54:21.267Z,4.30
2023-03-18T03:56:48.776Z,4.53
2023-03-18T03:59:16.377Z,4.67
2023-03-18T04:02:23.799Z,4.70
2023-03-18T04:04:52.740Z,4.57
2023-03-18T04:07:27.857Z,4.70
2023-03-18T04:09:56.102Z,4.80
2023-03-18T04:12:23.411Z,4.63
2023-03-18T04:14:56.546Z,4.40
2023-03-18T04:17:24.034Z,4.60
2023-03-18T04:19:51.352Z,4.83
2023-03-18T04:22:19.407Z,4.60
2023-03-18T04:24:46.811Z,3.90
2023-03-18T04:27:14.294Z,4.10
2023-03-18T04:29:41.712Z,4.43
2023-03-18T04:32:09.131Z,4.00
2023-03-18T04:34:38.549Z,3.93
2023-03-18T04:37:08.660Z,4.40
2023-03-18T04:39:37.377Z,4.73
2023-03-18T04:42:05.063Z,5.00
2023-03-18T04:44:32.915Z,4.93
2023-03-18T04:47:01.063Z,4.50
2023-03-18T04:49:29.112Z,4.37
2023-03-18T04:51:56.687Z,4.80
2023-03-18T04:54:30.021Z,4.50
2023-03-18T04:57:01.037Z,4.40
2023-03-18T04:59:30.254Z,4.83
2023-03-18T05:01:59.749Z,5.07
2023-03-18T05:04:28.176Z,4.43
2023-03-18T05:06:56.118Z,4.80
2023-03-18T05:09:31.371Z,3.90
2023-03-18T05:11:59.688Z,4.70
2023-03-18T05:14:32.920Z,4.93
2023-03-18T05:17:01.476Z,4.50
2023-03-18T05:19:30.609Z,4.67
2023-03-18T05:22:06.909Z,4.63
2023-03-18T05:24:34.827Z,4.50
2023-03-18T05:27:03.489Z,4.23
2023-03-18T05:29:38.446Z,4.60
2023-03-18T05:32:28.491Z,4.30
2023-03-18T05:35:01.465Z,4.40
2023-03-18T05:37:31.002Z,4.80
2023-03-18T05:40:09.895Z,4.23
2023-03-18T05:42:49.463Z,4.20
2023-03-18T05:45:23.100Z,4.63
2023-03-18T05:47:54.980Z,3.70
2023-03-18T05:50:33.982Z,4.90
2023-03-18T05:53:04.735Z,4.53
2023-03-18T05:55:36.035Z,4.83
2023-03-18T05:58:03.945Z,3.90
2023-03-18T06:00:33.261Z,4.80
2023-03-18T06:03:02.698Z,4.77
2023-03-18T06:05:34.071Z,4.17
2023-03-18T06:08:02.881Z,4.50
2023-03-18T06:10:30.545Z,4.20
2023-03-18T06:12:57.967Z,4.50
2023-03-18T06:15:25.721Z,4.47
2023-03-18T06:17:53.149Z,4.30
2023-03-18T06:20:20.762Z,4.03
2023-03-18T06:22:51.910Z,4.10
2023-03-18T06:25:20.750Z,5.17
2023-03-18T06:27:50.053Z,4.77
2023-03-18T06:30:20.196Z,4.73
2023-03-18T06:32:47.846Z,5.10
2023-03-18T06:35:15.619Z,4.90
2023-03-18T06:37:43.910Z,4.50
2023-03-18T06:40:12.253Z,4.30
2023-03-18T06:42:41.185Z,4.60
2023-03-18T06:45:17.075Z,4.07
2023-03-18T06:47:53.970Z,4.33
2023-03-18T06:50:22.441Z,8.20
2023-03-18T06:52:49.986Z,4.80
2023-03-18T06:55:24.030Z,4.83
2023-03-18T06:57:52.434Z,4.33
2023-03-18T07:00:25.083Z,4.83
2023-03-18T07:02:53.957Z,3.90
2023-03-18T07:05:26.444Z,4.37
2023-03-18T07:07:54.448Z,5.30
2023-03-18T07:10:28.117Z,4.23
2023-03-18T07:13:02.435Z,4.43
2023-03-18T07:15:30.510Z,4.50
2023-03-18T07:18:00.512Z,4.87
2023-03-18T07:20:28.750Z,4.60
2023-03-18T07:22:56.047Z,4.97
2023-03-18T07:25:23.330Z,4.20
2023-03-18T07:27:52.160Z,5.00
2023-03-18T07:30:20.253Z,4.53
2023-03-18T07:32:47.870Z,4.80
2023-03-18T07:35:15.751Z,4.20
2023-03-18T07:37:43.703Z,4.00
2023-03-18T07:40:11.766Z,4.27
2023-03-18T07:42:39.137Z,4.17
2023-03-18T07:45:09.583Z,4.40
2023-03-18T07:47:37.152Z,4.27
2023-03-18T07:50:05.802Z,3.90
2023-03-18T07:52:33.759Z,4.80
2023-03-18T07:55:01.759Z,4.73
2023-03-18T07:57:29.108Z,4.87
2023-03-18T07:59:56.909Z,4.60
2023-03-18T08:02:24.181Z,4.30
2023-03-18T08:04:52.901Z,5.13
2023-03-18T08:07:20.622Z,4.27
2023-03-18T08:09:47.950Z,3.93
2023-03-18T08:12:18.714Z,4.47
2023-03-18T08:14:46.753Z,4.30
2023-03-18T08:17:14.405Z,4.47
2023-03-18T08:19:42.069Z,4.23
2023-03-18T08:22:10.089Z,5.87
2023-03-18T08:24:38.469Z,4.87
2023-03-18T08:27:06.558Z,4.67
2023-03-18T08:29:33.892Z,4.40
2023-03-18T08:32:01.357Z,4.70
2023-03-18T08:34:29.392Z,4.57
2023-03-18T08:36:56.745Z,4.97
2023-03-18T08:39:24.048Z,4.40
2023-03-18T08:41:51.326Z,5.30
2023-03-18T08:44:18.881Z,4.93
2023-03-18T08:46:46.416Z,4.40
2023-03-18T08:49:14.566Z,4.70
2023-03-18T08:51:42.042Z,4.87
2023-03-18T08:54:09.344Z,4.43
2023-03-18T08:56:36.637Z,4.37
2023-03-18T08:59:04.367Z,5.07
2023-03-18T09:01:31.762Z,4.90
2023-03-18T09:03:59.477Z,4.47
2023-03-18T09:06:27.773Z,4.83
2023-03-18T09:08:55.202Z,4.17
2023-03-18T09:11:22.702Z,4.53
2023-03-18T09:13:49.947Z,4.43
2023-03-18T09:16:18.356Z,4.57
2023-03-18T09:18:47.699Z,4.70
2023-03-18T09:21:16.087Z,4.33
2023-03-18T09:23:43.686Z,5.23
2023-03-18T09:26:11.580Z,5.10
2023-03-18T09:28:39.105Z,4.07
2023-03-18T09:31:06.824Z,5.40
2023-03-18T09:33:37.035Z,4.93
2023-03-18T09:36:04.830Z,4.90
2023-03-18T09:38:32.513Z,4.97
2023-03-18T09:41:19.457Z,4.73
2023-03-18T09:44:08.484Z,5.07
2023-03-18T09:46:39.072Z,5.13
2023-03-18T09:49:27.614Z,4.80
2023-03-18T09:51:54.880Z,4.90
2023-03-18T09:54:25.553Z,4.80
2023-03-18T09:56:53.707Z,4.77
2023-03-18T09:59:24.421Z,4.47
2023-03-18T10:01:54.518Z,5.07
2023-03-18T10:04:25.822Z,4.70
2023-03-18T10:07:04.426Z,6.00
2023-03-18T10:09:42.824Z,5.47
2023-03-18T10:12:25.220Z,5.40
2023-03-18T10:15:01.634Z,5.27
2023-03-18T10:17:35.492Z,4.60
2023-03-18T10:20:04.887Z,5.07
2023-03-18T10:22:51.094Z,5.13
2023-03-18T10:25:27.573Z,5.10
2023-03-18T10:28:10.472Z,4.90
2023-03-18T10:30:50.149Z,4.83
2023-03-18T10:33:27.630Z,5.50
2023-03-18T10:35:54.973Z,5.13
2023-03-18T10:38:28.837Z,4.70
2023-03-18T10:40:57.666Z,5.17
2023-03-18T10:43:32.240Z,4.47
2023-03-18T10:46:04.278Z,4.67
2023-03-18T10:48:31.549Z,5.30
2023-03-18T10:51:08.398Z,5.30
2023-03-18T10:53:40.053Z,4.77
2023-03-18T10:56:08.828Z,4.53
2023-03-18T10:58:36.886Z,5.10
2023-03-18T11:01:05.724Z,4.97
2023-03-18T11:03:34.977Z,5.00
2023-03-18T11:06:04.396Z,4.83
2023-03-18T11:08:34.557Z,4.70
2023-03-18T11:11:19.457Z,5.10
2023-03-18T11:13:47.559Z,4.77
2023-03-18T11:16:35.542Z,4.80
2023-03-18T11:19:09.312Z,5.00
2023-03-18T11:21:37.561Z,4.90
2023-03-18T11:24:10.164Z,4.87
2023-03-18T11:26:45.971Z,5.40
2023-03-18T11:29:23.898Z,4.60
2023-03-18T11:31:58.046Z,4.70
2023-03-18T11:34:33.358Z,5.17
2023-03-18T11:37:04.731Z,5.30
2023-03-18T11:39:36.695Z,5.40
2023-03-18T11:42:06.195Z,4.97
2023-03-18T11:44:33.861Z,5.87
2023-03-18T11:47:04.375Z,4.93
2023-03-18T11:49:32.638Z,5.53
2023-03-18T11:52:19.043Z,5.67
2023-03-18T11:54:54.930Z,5.97
2023-03-18T11:57:32.355Z,5.47
2023-03-18T12:00:18.308Z,4.87
2023-03-18T12:02:54.975Z,5.37
2023-03-18T12:05:32.638Z,5.23
2023-03-18T12:08:19.003Z,6.00
2023-03-18T12:10:54.735Z,5.90
2023-03-18T12:13:39.498Z,5.97
2023-03-18T12:16:22.082Z,5.73
2023-03-18T12:19:05.417Z,6.13
2023-03-18T12:21:44.938Z,5.47
2023-03-18T12:24:15.357Z,6.10
2023-03-18T12:26:46.559Z,5.13
2023-03-18T12:29:26.645Z,6.23
2023-03-18T12:32:00.344Z,6.13
2023-03-18T12:34:40.374Z,5.97
2023-03-18T12:37:20.387Z,6.90
2023-03-18T12:39:52.753Z,6.03
2023-03-18T12:42:33.063Z,6.43
2023-03-18T12:45:02.913Z,6.33
2023-03-18T12:47:37.246Z,5.97
2023-03-18T12:50:08.927Z,6.33
2023-03-18T12:52:45.276Z,6.23
2023-03-18T12:55:27.908Z,5.87
2023-03-18T12:57:58.143Z,5.73
2023-03-18T13:00:30.328Z,6.50
2023-03-18T13:03:05.025Z,6.57
2023-03-18T13:05:37.229Z,6.53
2023-03-18T13:08:16.568Z,6.37
2023-03-18T13:10:46.535Z,6.90
2023-03-18T13:13:14.715Z,6.33
2023-03-18T13:15:44.141Z,5.93
2023-03-18T13:18:18.029Z,6.67
2023-03-18T13:20:45.789Z,6.47
2023-03-18T13:23:32.140Z,6.20
2023-03-18T13:26:22.370Z,6.40
2023-03-18T13:29:08.484Z,6.30
2023-03-18T13:31:52.436Z,6.87
2023-03-18T13:34:47.166Z,5.57
2023-03-18T13:37:24.896Z,6.83
2023-03-18T13:39:52.877Z,6.57
2023-03-18T13:42:22.308Z,6.00
2023-03-18T13:45:08.660Z,6.80
2023-03-18T13:47:37.966Z,6.37
2023-03-18T13:50:25.334Z,6.73
2023-03-18T13:52:55.098Z,6.60
2023-03-18T13:55:32.321Z,7.30
2023-03-18T13:58:11.681Z,6.37
2023-03-18T14:00:40.463Z,6.67
2023-03-18T14:03:14.425Z,6.90
2023-03-18T14:05:42.385Z,6.67
2023-03-18T14:08:28.151Z,6.83
2023-03-18T14:11:14.832Z,6.97
2023-03-18T14:13:42.185Z,7.60
2023-03-18T14:16:13.408Z,8.37
2023-03-18T14:18:41.423Z,7.80
2023-03-18T14:21:23.614Z,7.13
2023-03-18T14:24:17.327Z,7.10
2023-03-18T14:26:49.428Z,7.80
2023-03-18T14:29:26.890Z,7.67
2023-03-18T14:32:01.132Z,7.70
2023-03-18T14:34:29.959Z,7.27
2023-03-18T14:36:57.339Z,7.13
2023-03-18T14:39:28.149Z,7.37
2023-03-18T14:41:58.252Z,7.23
2023-03-18T14:44:46.242Z,6.77
2023-03-18T14:47:38.958Z,7.60
2023-03-18T14:50:08.339Z,6.67
2023-03-18T14:52:37.710Z,7.40
2023-03-18T14:55:08.455Z,6.77
2023-03-18T14:57:35.770Z,7.07
2023-03-18T15:00:05.075Z,7.30
2023-03-18T15:02:37.502Z,7.73
2023-03-18T15:05:05.619Z,7.10
2023-03-18T15:07:41.415Z,8.47
2023-03-18T15:10:10.398Z,8.27
2023-03-18T15:12:37.869Z,8.23
2023-03-18T15:15:06.486Z,7.90
2023-03-18T15:17:33.800Z,7.70
2023-03-18T15:20:01.641Z,7.87
2023-03-18T15:22:32.488Z,7.77
2023-03-18T15:25:02.412Z,7.50
2023-03-18T15:27:31.373Z,8.00
2023-03-18T15:30:17.545Z,7.33
2023-03-18T15:32:52.631Z,7.43
2023-03-18T15:35:22.207Z,8.07
2023-03-18T15:38:05.533Z,7.73
2023-03-18T15:40:35.417Z,8.13
2023-03-18T15:43:11.880Z,8.27
2023-03-18T15:45:55.624Z,8.43
2023-03-18T15:48:26.740Z,7.70
2023-03-18T15:50:59.218Z,8.30
2023-03-18T15:53:39.900Z,8.40
2023-03-18T15:56:16.863Z,7.97
2023-03-18T15:58:45.074Z,8.23
2023-03-18T16:01:17.020Z,8.00
2023-03-18T16:03:46.538Z,8.63
2023-03-18T16:06:14.914Z,8.90
2023-03-18T16:08:42.174Z,8.37
2023-03-18T16:11:10.652Z,9.23
2023-03-18T16:13:38.905Z,8.73
2023-03-18T16:16:06.415Z,8.33
2023-03-18T16:18:34.956Z,8.37
2023-03-18T16:21:02.615Z,9.00
2023-03-18T16:23:30.476Z,9.10
2023-03-18T16:25:59.032Z,8.40
2023-03-18T16:28:28.452Z,9.77
2023-03-18T16:30:56.200Z,9.10
2023-03-18T16:33:24.142Z,9.23
2023-03-18T16:36:03.671Z,9.50
2023-03-18T16:38:31.141Z,9.77
2023-03-18T16:40:59.063Z,10.67
2023-03-18T16:43:28.428Z,9.87
2023-03-18T16:45:59.177Z,9.90
2023-03-18T16:48:26.844Z,10.53
2023-03-18T16:50:56.536Z,10.23
2023-03-18T16:53:27.157Z,10.43
2023-03-18T16:55:59.701Z,9.80
2023-03-18T16:58:29.758Z,11.13
2023-03-18T17:00:57.886Z,10.13
2023-03-18T17:03:25.200Z,10.30
2023-03-18T17:05:52.983Z,10.97
2023-03-18T17:08:21.610Z,11.03
2023-03-18T17:10:50.965Z,11.17
2023-03-18T17:13:23.178Z,11.50
2023-03-18T17:15:51.172Z,11.57
2023-03-18T17:18:19.366Z,11.73
2023-03-18T17:20:47.004Z,11.43
2023-03-18T17:23:21.811Z,11.87
2023-03-18T17:25:51.203Z,12.13
2023-03-18T17:28:44.836Z,12.40
2023-03-18T17:31:13.042Z,11.97
2023-03-18T17:33:40.592Z,12.00
2023-03-18T17:36:08.229Z,11.07
2023-03-18T17:38:36.185Z,11.00
2023-03-18T17:41:05.327Z,10.77
2023-03-18T17:43:34.009Z,11.77
2023-03-18T17:46:03.023Z,11.33
2023-03-18T17:48:50.193Z,11.10
2023-03-18T17:51:19.626Z,11.40
2023-03-18T17:53:48.235Z,11.30
2023-03-18T17:56:17.254Z,10.63
2023-03-18T17:58:46.677Z,10.83
2023-03-18T18:01:18.651Z,10.70
2023-03-18T18:03:46.050Z,10.97
2023-03-18T18:06:17.800Z,11.93
2023-03-18T18:08:45.163Z,11.57
2023-03-18T18:11:22.888Z,11.80
2023-03-18T18:13:50.669Z,12.07
2023-03-18T18:16:18.695Z,11.13
2023-03-18T18:18:48.312Z,11.60
2023-03-18T18:21:18.251Z,10.77
2023-03-18T18:23:45.656Z,10.67
2023-03-18T18:26:16.661Z,10.77
2023-03-18T18:28:48.453Z,10.80
2023-03-18T18:31:17.660Z,10.80
2023-03-18T18:33:45.676Z,10.10
2023-03-18T18:36:13.865Z,10.37
2023-03-18T18:38:41.174Z,9.67
2023-03-18T18:41:08.825Z,9.93
2023-03-18T18:43:36.272Z,10.57
2023-03-18T18:46:03.568Z,10.70
2023-03-18T18:48:32.253Z,10.90
2023-03-18T18:51:00.151Z,11.13
2023-03-18T18:53:27.357Z,10.70
2023-03-18T18:55:55.992Z,11.37
2023-03-18T18:58:26.719Z,10.43
2023-03-18T19:00:54.009Z,10.90
2023-03-18T19:03:22.792Z,10.83
2023-03-18T19:05:51.322Z,11.13
2023-03-18T19:08:25.077Z,11.63
2023-03-18T19:10:53.231Z,10.57
2023-03-18T19:13:20.815Z,11.00
2023-03-18T19:15:48.783Z,11.50
2023-03-18T19:18:21.516Z,11.03
2023-03-18T19:20:49.005Z,11.10
2023-03-18T19:23:23.060Z,11.13
2023-03-18T19:25:50.450Z,10.40
2023-03-18T19:28:21.941Z,10.80
2023-03-18T19:30:49.157Z,11.00
2023-03-18T19:33:17.127Z,10.50
2023-03-18T19:35:44.750Z,11.33
2023-03-18T19:38:16.308Z,10.57
2023-03-18T19:40:43.809Z,11.37
2023-03-18T19:43:18.338Z,11.40
2023-03-18T19:45:49.202Z,11.43
2023-03-18T19:48:23.816Z,11.50
2023-03-18T19:50:51.781Z,11.30
2023-03-18T19:53:19.622Z,11.07
2023-03-18T19:55:48.350Z,11.40
2023-03-18T19:58:24.375Z,11.50
2023-03-18T20:00:51.866Z,11.00
2023-03-18T20:03:20.552Z,11.10
2023-03-18T20:05:48.202Z,10.33
2023-03-18T20:08:15.503Z,11.07
2023-03-18T20:10:43.258Z,11.27
2023-03-18T20:13:14.277Z,11.50
2023-03-18T20:15:41.817Z,10.53
2023-03-18T20:18:13.834Z,11.87
2023-03-18T20:20:41.637Z,10.97
2023-03-18T20:23:12.167Z,11.07
2023-03-18T20:25:42.883Z,11.43
2023-03-18T20:28:15.664Z,11.27
2023-03-18T20:30:43.431Z,10.83
2023-03-18T20:33:29.344Z,11.13
2023-03-18T20:35:56.780Z,11.27
2023-03-18T20:38:27.203Z,10.87
2023-03-18T20:40:54.597Z,11.33
2023-03-18T20:43:22.953Z,11.23
2023-03-18T20:45:53.482Z,10.53
2023-03-18T20:48:21.139Z,11.67
2023-03-18T20:50:49.102Z,10.80
2023-03-18T20:53:28.999Z,11.77
2023-03-18T20:55:56.900Z,11.63
2023-03-18T20:58:25.783Z,11.10
2023-03-18T21:00:53.544Z,11.93
2023-03-18T21:03:21.160Z,10.73
2023-03-18T21:05:48.655Z,12.10
2023-03-18T21:08:16.189Z,11.43
2023-03-18T21:10:43.525Z,11.73
2023-03-18T21:13:31.100Z,11.60
2023-03-18T21:15:59.015Z,10.87
2023-03-18T21:18:26.541Z,11.30
2023-03-18T21:20:54.373Z,11.87
2023-03-18T21:23:23.465Z,11.20
2023-03-18T21:25:51.308Z,11.80
2023-03-18T21:28:19.409Z,11.17
2023-03-18T21:30:48.351Z,11.83
2023-03-18T21:33:19.407Z,11.67
2023-03-18T21:35:46.785Z,11.37
2023-03-18T21:38:14.085Z,11.83
2023-03-18T21:40:41.591Z,10.60
2023-03-18T21:43:26.468Z,10.80
2023-03-18T21:45:54.198Z,11.73
2023-03-18T21:48:21.683Z,10.87
2023-03-18T21:50:49.704Z,11.33
2023-03-18T21:53:18.262Z,10.97
2023-03-18T21:55:45.804Z,11.73
2023-03-18T21:58:17.509Z,10.70
2023-03-18T22:00:46.102Z,11.10
2023-03-18T22:03:14.536Z,11.03
2023-03-18T22:05:41.967Z,10.10
2023-03-18T22:08:09.603Z,10.40
2023-03-18T22:10:37.170Z,11.10
2023-03-18T22:13:17.769Z,12.57
2023-03-18T22:15:45.664Z,11.07
2023-03-18T22:18:13.028Z,10.60
2023-03-18T22:20:40.356Z,10.50
2023-03-18T22:23:16.227Z,10.30
2023-03-18T22:25:44.201Z,11.33
2023-03-18T22:28:12.333Z,10.90
2023-03-18T22:30:41.968Z,10.53
2023-03-18T22:33:16.896Z,11.30
2023-03-18T22:35:44.271Z,11.03
2023-03-18T22:38:15.856Z,11.23
2023-03-18T22:40:44.101Z,10.57
2023-03-18T22:43:22.399Z,10.13
2023-03-18T22:45:49.651Z,9.97
2023-03-18T22:48:17.548Z,9.93
2023-03-18T22:50:44.948Z,10.90
2023-03-18T22:53:17.949Z,10.60
2023-03-18T22:55:45.278Z,10.53
2023-03-18T22:58:20.572Z,10.93
2023-03-18T23:00:48.421Z,11.13
2023-03-18T23:03:26.650Z,10.33
2023-03-18T23:05:55.125Z,10.27
2023-03-18T23:08:22.633Z,11.13
2023-03-18T23:10:50.621Z,11.87
2023-03-18T23:13:38.389Z,11.53
2023-03-18T23:16:06.690Z,10.97
2023-03-18T23:18:34.201Z,10.57
2023-03-18T23:21:01.769Z,11.00
2023-03-18T23:23:30.339Z,11.70
2023-03-18T23:25:58.005Z,15.87
2023-03-18T23:28:25.938Z,11.47
2023-03-18T23:30:53.903Z,10.43
2023-03-18T23:33:21.248Z,11.07
2023-03-18T23:35:48.700Z,10.73
2023-03-18T23:38:16.110Z,10.30
2023-03-18T23:41:02.289Z,11.77
2023-03-18T23:43:29.603Z,10.83
2023-03-18T23:45:56.954Z,10.27
2023-03-18T23:48:24.392Z,10.50
2023-03-18T23:50:51.774Z,11.23
2023-03-18T23:53:23.334Z,11.23
2023-03-18T23:55:50.962Z,10.80
2023-03-18T23:58:18.263Z,10.63
